sensor_id;sensor_type;location;lat;lon;timestamp;pressure;altitude;pressure_sealevel;temperature;humidity
6030;BME280;3043;42.682;23.376;2023-05-10T00:01:39;95133.31;;;9.32;100.00
6030;BME280;3043;42.682;23.376;2023-05-10T00:04:05;95134.16;;;9.34;100.00
6030;BME280;3043;42.682;23.376;2023-05-10T00:06:31;95148.88;;;9.29;100.00
6030;BME280;3043;42.682;23.376;2023-05-10T00:08:56;95154.09;;;9.26;100.00
6030;BME280;3043;42.682;23.376;2023-05-10T00:11:22;95148.16;;;9.19;100.00
6030;BME280;3043;42.682;23.376;2023-05-10T00:13:47;95137.09;;;9.13;100.00
6030;BME280;3043;42.682;23.376;2023-05-10T00:16:13;95133.69;;;9.11;100.00
6030;BME280;3043;42.682;23.376;2023-05-10T00:18:39;95134.63;;;9.07;100.00
6030;BME280;3043;42.682;23.376;2023-05-10T00:21:05;95130.38;;;9.02;100.00
6030;BME280;3043;42.682;23.376;2023-05-10T00:23:31;95124.41;;;9.00;100.00
6030;BME280;3043;42.682;23.376;2023-05-10T00:25:57;95131.34;;;8.97;100.00
6030;BME280;3043;42.682;23.376;2023-05-10T00:28:22;95128.78;;;8.95;100.00
6030;BME280;3043;42.682;23.376;2023-05-10T00:30:48;95123.72;;;8.89;100.00
6030;BME280;3043;42.682;23.376;2023-05-10T00:33:13;95126.34;;;8.86;100.00
6030;BME280;3043;42.682;23.376;2023-05-10T00:35:39;95123.81;;;8.83;100.00
6030;BME280;3043;42.682;23.376;2023-05-10T00:38:04;95121.22;;;8.85;100.00
6030;BME280;3043;42.682;23.376;2023-05-10T00:40:29;95123.03;;;8.78;100.00
6030;BME280;3043;42.682;23.376;2023-05-10T00:42:56;95124.72;;;8.81;100.00
6030;BME280;3043;42.682;23.376;2023-05-10T00:45:22;95123.09;;;8.75;100.00
6030;BME280;3043;42.682;23.376;2023-05-10T00:47:48;95125.66;;;8.75;100.00
6030;BME280;3043;42.682;23.376;2023-05-10T00:50:14;95123.16;;;8.69;100.00
6030;BME280;3043;42.682;23.376;2023-05-10T00:52:41;95130.91;;;8.69;100.00
6030;BME280;3043;42.682;23.376;2023-05-10T00:55:08;95118.91;;;8.68;100.00
6030;BME280;3043;42.682;23.376;2023-05-10T00:57:34;95118.06;;;8.66;100.00
6030;BME280;3043;42.682;23.376;2023-05-10T01:00:02;95116.31;;;8.68;100.00
6030;BME280;3043;42.682;23.376;2023-05-10T01:02:28;95118.09;;;8.65;100.00
6030;BME280;3043;42.682;23.376;2023-05-10T01:04:53;95115.44;;;8.69;100.00
6030;BME280;3043;42.682;23.376;2023-05-10T01:07:19;95113.69;;;8.71;100.00
6030;BME280;3043;42.682;23.376;2023-05-10T01:09:45;95117.19;;;8.67;100.00
6030;BME280;3043;42.682;23.376;2023-05-10T01:12:11;95126.66;;;8.67;100.00
6030;BME280;3043;42.682;23.376;2023-05-10T01:14:36;95113.75;;;8.68;100.00
6030;BME280;3043;42.682;23.376;2023-05-10T01:17:03;95118.94;;;8.65;100.00
6030;BME280;3043;42.682;23.376;2023-05-10T01:19:31;95120.69;;;8.63;100.00
6030;BME280;3043;42.682;23.376;2023-05-10T01:30:04;95107.00;;;8.58;100.00
6030;BME280;3043;42.682;23.376;2023-05-10T01:32:38;95101.03;;;8.56;100.00
6030;BME280;3043;42.682;23.376;2023-05-10T01:35:17;95110.50;;;8.54;100.00
6030;BME280;3043;42.682;23.376;2023-05-10T01:43:59;95115.66;;;8.54;100.00
6030;BME280;3043;42.682;23.376;2023-05-10T01:46:37;95099.41;;;8.48;100.00
6030;BME280;3043;42.682;23.376;2023-05-10T01:49:09;95114.84;;;8.51;100.00
6030;BME280;3043;42.682;23.376;2023-05-10T01:51:44;95092.59;;;8.45;100.00
6030;BME280;3043;42.682;23.376;2023-05-10T01:54:11;95112.38;;;8.43;100.00
6030;BME280;3043;42.682;23.376;2023-05-10T01:56:39;95097.81;;;8.41;100.00
6030;BME280;3043;42.682;23.376;2023-05-10T01:59:11;95104.69;;;8.40;100.00
6030;BME280;3043;42.682;23.376;2023-05-10T02:01:38;95091.00;;;8.37;100.00
6030;BME280;3043;42.682;23.376;2023-05-10T02:04:05;95100.41;;;8.39;100.00
6030;BME280;3043;42.682;23.376;2023-05-10T02:06:31;95093.63;;;8.35;100.00
6030;BME280;3043;42.682;23.376;2023-05-10T02:09:00;95103.94;;;8.35;100.00
6030;BME280;3043;42.682;23.376;2023-05-10T02:11:27;95109.00;;;8.41;100.00
6030;BME280;3043;42.682;23.376;2023-05-10T02:13:55;95100.47;;;8.36;100.00
6030;BME280;3043;42.682;23.376;2023-05-10T02:16:23;95116.03;;;8.30;100.00
6030;BME280;3043;42.682;23.376;2023-05-10T02:18:52;95103.13;;;8.32;100.00
6030;BME280;3043;42.682;23.376;2023-05-10T02:21:19;95110.81;;;8.33;100.00
6030;BME280;3043;42.682;23.376;2023-05-10T02:23:46;95116.03;;;8.30;100.00
6030;BME280;3043;42.682;23.376;2023-05-10T02:26:13;95106.53;;;8.34;100.00
6030;BME280;3043;42.682;23.376;2023-05-10T02:28:40;95115.97;;;8.33;100.00
6030;BME280;3043;42.682;23.376;2023-05-10T02:31:07;95119.50;;;8.29;100.00
6030;BME280;3043;42.682;23.376;2023-05-10T02:33:35;95124.75;;;8.17;100.00
6030;BME280;3043;42.682;23.376;2023-05-10T02:36:01;95133.44;;;8.10;100.00
6030;BME280;3043;42.682;23.376;2023-05-10T02:38:28;95130.06;;;8.05;100.00
6030;BME280;3043;42.682;23.376;2023-05-10T02:40:55;95149.91;;;8.00;100.00
6030;BME280;3043;42.682;23.376;2023-05-10T02:43:22;95136.25;;;7.92;100.00
6030;BME280;3043;42.682;23.376;2023-05-10T02:45:48;95149.22;;;7.86;100.00
6030;BME280;3043;42.682;23.376;2023-05-10T02:48:15;95130.44;;;7.77;100.00
6030;BME280;3043;42.682;23.376;2023-05-10T02:50:44;95132.94;;;7.81;100.00
6030;BME280;3043;42.682;23.376;2023-05-10T02:53:11;95134.72;;;7.78;100.00
6030;BME280;3043;42.682;23.376;2023-05-10T02:55:40;95135.56;;;7.78;100.00
6030;BME280;3043;42.682;23.376;2023-05-10T02:58:08;95142.47;;;7.76;100.00
6030;BME280;3043;42.682;23.376;2023-05-10T03:00:34;95131.31;;;7.76;100.00
6030;BME280;3043;42.682;23.376;2023-05-10T03:03:01;95125.28;;;7.75;100.00
6030;BME280;3043;42.682;23.376;2023-05-10T03:05:27;95136.41;;;7.80;100.00
6030;BME280;3043;42.682;23.376;2023-05-10T03:07:53;95131.25;;;7.80;100.00
6030;BME280;3043;42.682;23.376;2023-05-10T03:10:19;95136.41;;;7.80;100.00
6030;BME280;3043;42.682;23.376;2023-05-10T03:12:52;95135.47;;;7.86;100.00
6030;BME280;3043;42.682;23.376;2023-05-10T03:18:06;95148.25;;;7.93;100.00
6030;BME280;3043;42.682;23.376;2023-05-10T03:25:39;95154.34;;;7.89;100.00
6030;BME280;3043;42.682;23.376;2023-05-10T03:28:07;95149.94;;;7.99;100.00
6030;BME280;3043;42.682;23.376;2023-05-10T03:30:34;95154.22;;;7.98;100.00
6030;BME280;3043;42.682;23.376;2023-05-10T03:33:05;95143.00;;;8.01;100.00
6030;BME280;3043;42.682;23.376;2023-05-10T03:35:31;95157.72;;;7.94;100.00
6030;BME280;3043;42.682;23.376;2023-05-10T03:37:57;95159.47;;;7.92;100.00
6030;BME280;3043;42.682;23.376;2023-05-10T03:40:23;95156.94;;;7.88;100.00
6030;BME280;3043;42.682;23.376;2023-05-10T03:42:49;95150.09;;;7.85;100.00
6030;BME280;3043;42.682;23.376;2023-05-10T03:45:14;95144.94;;;7.85;100.00
6030;BME280;3043;42.682;23.376;2023-05-10T03:47:40;95154.41;;;7.83;100.00
6030;BME280;3043;42.682;23.376;2023-05-10T03:50:06;95156.09;;;7.84;100.00
6030;BME280;3043;42.682;23.376;2023-05-10T03:52:32;95149.22;;;7.86;100.00
6030;BME280;3043;42.682;23.376;2023-05-10T03:54:57;95152.69;;;7.85;100.00
6030;BME280;3043;42.682;23.376;2023-05-10T03:57:25;95149.16;;;7.91;100.00
6030;BME280;3043;42.682;23.376;2023-05-10T03:59:51;95154.38;;;7.86;100.00
6030;BME280;3043;42.682;23.376;2023-05-10T04:02:16;95164.69;;;7.86;100.00
6030;BME280;3043;42.682;23.376;2023-05-10T04:04:41;95157.88;;;7.82;100.00
6030;BME280;3043;42.682;23.376;2023-05-10T04:07:07;95161.25;;;7.84;100.00
6030;BME280;3043;42.682;23.376;2023-05-10T04:09:33;95163.00;;;7.85;100.00
6030;BME280;3043;42.682;23.376;2023-05-10T04:11:59;95163.06;;;7.79;100.00
6030;BME280;3043;42.682;23.376;2023-05-10T04:14:25;95151.03;;;7.78;100.00
6030;BME280;3043;42.682;23.376;2023-05-10T04:16:51;95163.00;;;7.85;100.00
6030;BME280;3043;42.682;23.376;2023-05-10T04:19:16;95169.81;;;7.88;100.00
6030;BME280;3043;42.682;23.376;2023-05-10T04:21:42;95162.00;;;7.95;100.00
6030;BME280;3043;42.682;23.376;2023-05-10T04:24:07;95160.28;;;7.96;100.00
6030;BME280;3043;42.682;23.376;2023-05-10T04:26:32;95166.22;;;8.01;100.00
6030;BME280;3043;42.682;23.376;2023-05-10T04:28:58;95173.94;;;8.01;100.00
6030;BME280;3043;42.682;23.376;2023-05-10T04:31:23;95172.13;;;8.10;100.00
6030;BME280;3043;42.682;23.376;2023-05-10T04:33:49;95173.06;;;8.03;100.00
6030;BME280;3043;42.682;23.376;2023-05-10T04:36:15;95167.88;;;8.06;100.00
6030;BME280;3043;42.682;23.376;2023-05-10T04:38:40;95174.69;;;8.10;100.00
6030;BME280;3043;42.682;23.376;2023-05-10T04:41:07;95172.13;;;8.10;100.00
6030;BME280;3043;42.682;23.376;2023-05-10T04:43:33;95182.50;;;8.06;100.00
6030;BME280;3043;42.682;23.376;2023-05-10T04:45:59;95174.72;;;8.07;100.00
6030;BME280;3043;42.682;23.376;2023-05-10T04:48:24;95174.72;;;8.07;100.00
6030;BME280;3043;42.682;23.376;2023-05-10T04:50:50;95179.03;;;8.07;100.00
6030;BME280;3043;42.682;23.376;2023-05-10T04:53:15;95178.94;;;8.14;100.00
6030;BME280;3043;42.682;23.376;2023-05-10T04:55:41;95169.50;;;8.13;100.00
6030;BME280;3043;42.682;23.376;2023-05-10T04:58:06;95178.06;;;8.15;100.00
6030;BME280;3043;42.682;23.376;2023-05-10T05:00:33;95176.31;;;8.17;100.00
6030;BME280;3043;42.682;23.376;2023-05-10T05:02:58;95183.16;;;8.21;100.00
6030;BME280;3043;42.682;23.376;2023-05-10T05:05:24;95184.03;;;8.22;100.00
6030;BME280;3043;42.682;23.376;2023-05-10T05:07:49;95178.81;;;8.28;100.00
6030;BME280;3043;42.682;23.376;2023-05-10T05:10:14;95191.69;;;8.29;100.00
6030;BME280;3043;42.682;23.376;2023-05-10T05:12:40;95176.22;;;8.29;100.00
6030;BME280;3043;42.682;23.376;2023-05-10T05:15:06;95174.50;;;8.28;100.00
6030;BME280;3043;42.682;23.376;2023-05-10T05:17:33;95182.94;;;8.39;100.00
6030;BME280;3043;42.682;23.376;2023-05-10T05:19:58;95177.78;;;8.39;100.00
6030;BME280;3043;42.682;23.376;2023-05-10T05:22:24;95181.97;;;8.48;100.00
6030;BME280;3043;42.682;23.376;2023-05-10T05:24:56;95185.44;;;8.47;100.00
6030;BME280;3043;42.682;23.376;2023-05-10T05:27:21;95181.00;;;8.56;100.00
6030;BME280;3043;42.682;23.376;2023-05-10T05:29:50;95178.34;;;8.62;100.00
6030;BME280;3043;42.682;23.376;2023-05-10T05:32:16;95193.94;;;8.53;100.00
6030;BME280;3043;42.682;23.376;2023-05-10T05:34:41;95193.06;;;8.54;100.00
6030;BME280;3043;42.682;23.376;2023-05-10T05:37:07;95191.31;;;8.56;100.00
6030;BME280;3043;42.682;23.376;2023-05-10T05:39:32;95196.41;;;8.62;100.00
6030;BME280;3043;42.682;23.376;2023-05-10T05:41:58;95202.44;;;8.58;100.00
6030;BME280;3043;42.682;23.376;2023-05-10T05:44:23;95197.34;;;8.55;100.00
6030;BME280;3043;42.682;23.376;2023-05-10T05:46:49;95198.25;;;8.51;100.00
6030;BME280;3043;42.682;23.376;2023-05-10T05:49:14;95182.78;;;8.51;100.00
6030;BME280;3043;42.682;23.376;2023-05-10T05:51:40;95188.09;;;8.39;100.00
6030;BME280;3043;42.682;23.376;2023-05-10T05:54:05;95209.66;;;8.37;100.00
6030;BME280;3043;42.682;23.376;2023-05-10T05:56:31;95205.41;;;8.31;100.00
6030;BME280;3043;42.682;23.376;2023-05-10T05:58:56;95211.38;;;8.35;100.00
6030;BME280;3043;42.682;23.376;2023-05-10T06:01:22;95207.09;;;8.35;100.00
6030;BME280;3043;42.682;23.376;2023-05-10T06:03:47;95205.34;;;8.34;100.00
6030;BME280;3043;42.682;23.376;2023-05-10T06:06:13;95203.66;;;8.33;100.00
6030;BME280;3043;42.682;23.376;2023-05-10T06:08:38;95194.25;;;8.31;100.00
6030;BME280;3043;42.682;23.376;2023-05-10T06:11:04;95198.53;;;8.30;100.00
6030;BME280;3043;42.682;23.376;2023-05-10T06:13:29;95207.09;;;8.35;100.00
6030;BME280;3043;42.682;23.376;2023-05-10T06:16:02;95201.84;;;8.41;100.00
6030;BME280;3043;42.682;23.376;2023-05-10T06:18:27;95206.94;;;8.47;100.00
6030;BME280;3043;42.682;23.376;2023-05-10T06:20:52;95212.00;;;8.53;100.00
6030;BME280;3043;42.682;23.376;2023-05-10T06:23:18;95218.06;;;8.49;100.00
6030;BME280;3043;42.682;23.376;2023-05-10T06:25:43;95215.59;;;8.40;100.00
6030;BME280;3043;42.682;23.376;2023-05-10T06:28:09;95218.13;;;8.45;100.00
6030;BME280;3043;42.682;23.376;2023-05-10T06:30:36;95208.69;;;8.42;100.00
6030;BME280;3043;42.682;23.376;2023-05-10T06:33:01;95213.78;;;8.48;100.00
6030;BME280;3043;42.682;23.376;2023-05-10T06:35:28;95224.00;;;8.54;100.00
6030;BME280;3043;42.682;23.376;2023-05-10T06:37:54;95219.56;;;8.65;100.00
6030;BME280;3043;42.682;23.376;2023-05-10T06:40:20;95229.00;;;8.66;100.00
6030;BME280;3043;42.682;23.376;2023-05-10T06:42:46;95222.13;;;8.68;100.00
6030;BME280;3043;42.682;23.376;2023-05-10T06:45:13;95223.81;;;8.69;100.00
6030;BME280;3043;42.682;23.376;2023-05-10T06:47:38;95218.50;;;8.78;100.00
6030;BME280;3043;42.682;23.376;2023-05-10T06:50:04;95225.44;;;8.76;100.00
6030;BME280;3043;42.682;23.376;2023-05-10T06:52:29;95220.16;;;8.85;100.00
6030;BME280;3043;42.682;23.376;2023-05-10T06:54:55;95223.59;;;8.84;100.00
6030;BME280;3043;42.682;23.376;2023-05-10T06:57:20;95232.09;;;8.92;100.00
6030;BME280;3043;42.682;23.376;2023-05-10T06:59:46;95240.69;;;8.93;100.00
6030;BME280;3043;42.682;23.376;2023-05-10T07:02:12;95234.66;;;8.94;100.00
6030;BME280;3043;42.682;23.376;2023-05-10T07:04:37;95235.41;;;9.00;100.00
6030;BME280;3043;42.682;23.376;2023-05-10T07:07:03;95246.59;;;8.99;100.00
6030;BME280;3043;42.682;23.376;2023-05-10T07:09:28;95237.06;;;9.04;100.00
6030;BME280;3043;42.682;23.376;2023-05-10T07:11:55;95236.25;;;9.01;100.00
6030;BME280;3043;42.682;23.376;2023-05-10T07:14:21;95228.38;;;9.08;100.00
6030;BME280;3043;42.682;23.376;2023-05-10T07:16:46;95236.09;;;9.10;100.00
6030;BME280;3043;42.682;23.376;2023-05-10T07:19:12;95228.09;;;9.30;100.00
6030;BME280;3043;42.682;23.376;2023-05-10T07:21:37;95240.06;;;9.34;100.00
6030;BME280;3043;42.682;23.376;2023-05-10T07:24:03;95234.63;;;9.49;100.00
6030;BME280;3043;42.682;23.376;2023-05-10T07:26:28;95248.41;;;9.51;100.00
6030;BME280;3043;42.682;23.376;2023-05-10T07:28:54;95248.41;;;9.51;100.00
6030;BME280;3043;42.682;23.376;2023-05-10T07:31:20;95250.00;;;9.58;100.00
6030;BME280;3043;42.682;23.376;2023-05-10T07:33:45;95241.25;;;9.65;100.00
6030;BME280;3043;42.682;23.376;2023-05-10T07:36:11;95247.13;;;9.73;100.00
6030;BME280;3043;42.682;23.376;2023-05-10T07:38:36;95248.13;;;9.66;100.00
6030;BME280;3043;42.682;23.376;2023-05-10T07:41:02;95248.91;;;9.69;100.00
6030;BME280;3043;42.682;23.376;2023-05-10T07:43:27;95248.81;;;9.77;100.00
6030;BME280;3043;42.682;23.376;2023-05-10T07:45:53;95260.06;;;9.73;100.00
6030;BME280;3043;42.682;23.376;2023-05-10T07:48:18;95258.53;;;9.63;100.00
6030;BME280;3043;42.682;23.376;2023-05-10T07:50:44;95255.97;;;9.61;100.00
6030;BME280;3043;42.682;23.376;2023-05-10T07:53:09;95248.13;;;9.66;100.00
6030;BME280;3043;42.682;23.376;2023-05-10T07:55:35;95246.31;;;9.71;100.00
6030;BME280;3043;42.682;23.376;2023-05-10T07:58:00;95267.03;;;9.68;100.00
6030;BME280;3043;42.682;23.376;2023-05-10T08:00:29;95253.09;;;9.78;100.00
6030;BME280;3043;42.682;23.376;2023-05-10T08:02:54;95270.03;;;9.94;100.00
6030;BME280;3043;42.682;23.376;2023-05-10T08:05:20;95271.88;;;9.89;100.00
6030;BME280;3043;42.682;23.376;2023-05-10T08:07:45;95258.09;;;9.87;100.00
6030;BME280;3043;42.682;23.376;2023-05-10T08:10:10;95268.38;;;9.90;100.00
6030;BME280;3043;42.682;23.376;2023-05-10T08:12:36;95260.75;;;9.84;100.00
6030;BME280;3043;42.682;23.376;2023-05-10T08:15:03;95262.16;;;10.00;100.00
6030;BME280;3043;42.682;23.376;2023-05-10T08:17:28;95261.22;;;10.05;100.00
6030;BME280;3043;42.682;23.376;2023-05-10T08:19:54;95257.50;;;10.20;100.00
6030;BME280;3043;42.682;23.376;2023-05-10T08:22:19;95254.03;;;10.21;100.00
6030;BME280;3043;42.682;23.376;2023-05-10T08:24:45;95269.28;;;10.36;100.00
6030;BME280;3043;42.682;23.376;2023-05-10T08:27:10;95264.06;;;10.39;100.00
6030;BME280;3043;42.682;23.376;2023-05-10T08:29:37;95258.75;;;10.45;100.00
6030;BME280;3043;42.682;23.376;2023-05-10T08:32:03;95262.13;;;10.48;100.00
6030;BME280;3043;42.682;23.376;2023-05-10T08:34:28;95265.44;;;10.55;100.00
6030;BME280;3043;42.682;23.376;2023-05-10T08:36:53;95265.38;;;10.58;100.00
6030;BME280;3043;42.682;23.376;2023-05-10T08:39:19;95276.34;;;10.70;100.00
6030;BME280;3043;42.682;23.376;2023-05-10T08:41:46;95272.00;;;10.71;100.00
6030;BME280;3043;42.682;23.376;2023-05-10T08:44:12;95284.50;;;10.51;100.00
6030;BME280;3043;42.682;23.376;2023-05-10T08:46:39;95264.13;;;10.36;100.00
6030;BME280;3043;42.682;23.376;2023-05-10T08:49:11;95262.69;;;10.20;100.00
6030;BME280;3043;42.682;23.376;2023-05-10T08:51:40;95266.09;;;10.22;100.00
6030;BME280;3043;42.682;23.376;2023-05-10T08:54:08;95268.03;;;10.11;100.00
6030;BME280;3043;42.682;23.376;2023-05-10T08:56:33;95267.34;;;9.98;100.00
6030;BME280;3043;42.682;23.376;2023-05-10T08:58:59;95269.00;;;10.04;100.00
6030;BME280;3043;42.682;23.376;2023-05-10T09:01:26;95254.25;;;10.09;100.00
6030;BME280;3043;42.682;23.376;2023-05-10T09:03:52;95272.91;;;10.26;100.00
6030;BME280;3043;42.682;23.376;2023-05-10T09:06:18;95278.88;;;10.31;100.00
6030;BME280;3043;42.682;23.376;2023-05-10T09:08:44;95259.00;;;10.33;100.00
6030;BME280;3043;42.682;23.376;2023-05-10T09:11:11;95262.06;;;10.51;100.00
6030;BME280;3043;42.682;23.376;2023-05-10T09:13:37;95272.56;;;10.44;100.00
6030;BME280;3043;42.682;23.376;2023-05-10T09:16:04;95271.75;;;10.42;100.00
6030;BME280;3043;42.682;23.376;2023-05-10T09:18:29;95259.00;;;10.33;100.00
6030;BME280;3043;42.682;23.376;2023-05-10T09:20:55;95261.84;;;10.18;100.00
6030;BME280;3043;42.682;23.376;2023-05-10T09:23:20;95270.66;;;10.06;100.00
6030;BME280;3043;42.682;23.376;2023-05-10T09:25:46;95254.25;;;10.09;100.00
6030;BME280;3043;42.682;23.376;2023-05-10T09:28:11;95248.84;;;10.21;100.00
6030;BME280;3043;42.682;23.376;2023-05-10T09:30:37;95241.63;;;10.38;100.00
6030;BME280;3043;42.682;23.376;2023-05-10T09:33:02;95245.81;;;10.45;100.00
6030;BME280;3043;42.682;23.376;2023-05-10T09:35:31;95251.56;;;10.57;100.00
6030;BME280;3043;42.682;23.376;2023-05-10T09:38:02;95259.88;;;10.73;100.00
6030;BME280;3043;42.682;23.376;2023-05-10T09:40:29;95258.00;;;10.81;100.00
6030;BME280;3043;42.682;23.376;2023-05-10T09:43:01;95254.31;;;10.91;100.00
6030;BME280;3043;42.682;23.376;2023-05-10T09:45:28;95259.50;;;10.91;100.00
6030;BME280;3043;42.682;23.376;2023-05-10T09:47:55;95263.91;;;10.88;100.00
6030;BME280;3043;42.682;23.376;2023-05-10T09:50:21;95244.09;;;10.85;100.00
6030;BME280;3043;42.682;23.376;2023-05-10T09:55:14;95242.47;;;10.81;100.00
6030;BME280;3043;42.682;23.376;2023-05-10T09:57:40;95254.44;;;10.85;100.00
6030;BME280;3043;42.682;23.376;2023-05-10T10:00:06;95241.31;;;10.93;100.00
6030;BME280;3043;42.682;23.376;2023-05-10T10:02:32;95262.78;;;10.99;100.00
6030;BME280;3043;42.682;23.376;2023-05-10T10:05:00;95239.34;;;11.04;100.00
6030;BME280;3043;42.682;23.376;2023-05-10T10:07:27;95241.44;;;11.26;100.00
6030;BME280;3043;42.682;23.376;2023-05-10T10:09:53;95243.19;;;11.24;100.00
6030;BME280;3043;42.682;23.376;2023-05-10T10:12:19;95232.72;;;11.30;100.00
6030;BME280;3043;42.682;23.376;2023-05-10T10:14:46;95230.59;;;11.46;100.00
6030;BME280;3043;42.682;23.376;2023-05-10T10:17:13;95225.78;;;11.66;100.00
6030;BME280;3043;42.682;23.376;2023-05-10T10:19:39;95229.25;;;11.66;100.00
6030;BME280;3043;42.682;23.376;2023-05-10T10:22:04;95228.72;;;11.87;100.00
6030;BME280;3043;42.682;23.376;2023-05-10T10:24:30;95232.44;;;12.09;100.00
6030;BME280;3043;42.682;23.376;2023-05-10T10:27:03;95225.22;;;12.20;100.00
6030;BME280;3043;42.682;23.376;2023-05-10T10:32:07;95237.91;;;12.31;100.00
6030;BME280;3043;42.682;23.376;2023-05-10T10:34:34;95223.44;;;12.22;100.00
6030;BME280;3043;42.682;23.376;2023-05-10T10:37:05;95235.75;;;12.14;100.00
6030;BME280;3043;42.682;23.376;2023-05-10T10:39:32;95232.38;;;12.11;100.00
6030;BME280;3043;42.682;23.376;2023-05-10T10:41:58;95234.41;;;12.01;100.00
6030;BME280;3043;42.682;23.376;2023-05-10T10:54:52;95227.88;;;11.85;100.00
6030;BME280;3043;42.682;23.376;2023-05-10T10:57:19;95238.41;;;11.79;100.00
6030;BME280;3043;42.682;23.376;2023-05-10T10:59:46;95229.38;;;11.95;100.00
6030;BME280;3043;42.682;23.376;2023-05-10T11:02:36;95243.13;;;11.97;100.00
6030;BME280;3043;42.682;23.376;2023-05-10T11:05:46;95229.50;;;11.91;100.00
6030;BME280;3043;42.682;23.376;2023-05-10T11:10:51;95221.97;;;12.12;100.00
6030;BME280;3043;42.682;23.376;2023-05-10T11:13:27;95228.47;;;12.28;100.00
6030;BME280;3043;42.682;23.376;2023-05-10T11:15:54;95226.75;;;12.27;100.00
6030;BME280;3043;42.682;23.376;2023-05-10T11:18:26;95225.75;;;12.33;100.00
6030;BME280;3043;42.682;23.376;2023-05-10T11:23:21;95221.63;;;12.24;100.00
6030;BME280;3043;42.682;23.376;2023-05-10T11:25:48;95230.06;;;12.32;100.00
6030;BME280;3043;42.682;23.376;2023-05-10T11:28:14;95242.19;;;12.33;100.00
6030;BME280;3043;42.682;23.376;2023-05-10T11:30:41;95238.94;;;12.25;100.00
6030;BME280;3043;42.682;23.376;2023-05-10T11:33:07;95233.81;;;12.22;100.00
6030;BME280;3043;42.682;23.376;2023-05-10T11:35:38;95235.59;;;12.20;100.00
6030;BME280;3043;42.682;23.376;2023-05-10T11:38:11;95228.72;;;12.19;100.00
6030;BME280;3043;42.682;23.376;2023-05-10T11:40:38;95230.41;;;12.20;100.00
6030;BME280;3043;42.682;23.376;2023-05-10T11:43:04;95233.56;;;12.31;100.00
6030;BME280;3043;42.682;23.376;2023-05-10T11:45:34;95230.06;;;12.32;100.00
6030;BME280;3043;42.682;23.376;2023-05-10T11:48:00;95236.91;;;12.36;100.00
6030;BME280;3043;42.682;23.376;2023-05-10T11:50:27;95230.69;;;12.42;100.00
6030;BME280;3043;42.682;23.376;2023-05-10T11:52:53;95227.88;;;12.49;100.00
6030;BME280;3043;42.682;23.376;2023-05-10T11:55:19;95227.25;;;12.40;100.00
6030;BME280;3043;42.682;23.376;2023-05-10T11:57:45;95219.94;;;12.23;100.00
6030;BME280;3043;42.682;23.376;2023-05-10T12:00:12;95228.78;;;12.16;100.00
6030;BME280;3043;42.682;23.376;2023-05-10T12:02:38;95229.72;;;12.14;100.00
6030;BME280;3043;42.682;23.376;2023-05-10T12:05:04;95222.88;;;12.11;100.00
6030;BME280;3043;42.682;23.376;2023-05-10T12:07:31;95216.59;;;12.18;100.00
6030;BME280;3043;42.682;23.376;2023-05-10T12:10:06;95212.91;;;12.28;100.00
6030;BME280;3043;42.682;23.376;2023-05-10T12:12:40;95210.00;;;12.39;100.00
6030;BME280;3043;42.682;23.376;2023-05-10T12:15:16;95213.31;;;12.44;100.00
6030;BME280;3043;42.682;23.376;2023-05-10T12:17:44;95216.13;;;12.36;100.00
6030;BME280;3043;42.682;23.376;2023-05-10T12:20:20;95218.25;;;12.22;100.00
6030;BME280;3043;42.682;23.376;2023-05-10T12:22:57;95208.53;;;12.59;100.00
6030;BME280;3043;42.682;23.376;2023-05-10T12:25:29;95211.63;;;12.72;100.00
6030;BME280;3043;42.682;23.376;2023-05-10T12:27:57;95206.28;;;12.77;100.00
6030;BME280;3043;42.682;23.376;2023-05-10T12:30:24;95203.22;;;12.92;100.00
6030;BME280;3043;42.682;23.376;2023-05-10T12:32:50;95200.44;;;12.98;100.00
6030;BME280;3043;42.682;23.376;2023-05-10T12:35:16;95200.03;;;12.82;100.00
6030;BME280;3043;42.682;23.376;2023-05-10T12:37:43;95202.09;;;12.73;100.00
6030;BME280;3043;42.682;23.376;2023-05-10T12:40:09;95199.59;;;12.70;100.00
6030;BME280;3043;42.682;23.376;2023-05-10T12:42:36;95196.34;;;12.62;100.00
6030;BME280;3043;42.682;23.376;2023-05-10T12:45:03;95191.16;;;12.62;100.00
6030;BME280;3043;42.682;23.376;2023-05-10T12:47:29;95193.97;;;12.54;100.00
6030;BME280;3043;42.682;23.376;2023-05-10T12:49:55;95194.28;;;12.43;100.00
6030;BME280;3043;42.682;23.376;2023-05-10T12:52:20;95191.97;;;12.34;100.00
6030;BME280;3043;42.682;23.376;2023-05-10T12:54:46;95194.63;;;12.31;100.00
6030;BME280;3043;42.682;23.376;2023-05-10T12:57:13;95183.25;;;12.35;100.00
6030;BME280;3043;42.682;23.376;2023-05-10T12:59:38;95183.19;;;12.38;100.00
6030;BME280;3043;42.682;23.376;2023-05-10T13:02:04;95175.69;;;12.28;100.00
6030;BME280;3043;42.682;23.376;2023-05-10T13:04:30;95174.44;;;12.42;100.00
6030;BME280;3043;42.682;23.376;2023-05-10T13:06:55;95168.41;;;12.40;100.00
6030;BME280;3043;42.682;23.376;2023-05-10T13:09:27;95170.84;;;12.46;100.00
6030;BME280;3043;42.682;23.376;2023-05-10T13:11:55;95165.41;;;12.54;100.00
6030;BME280;3043;42.682;23.376;2023-05-10T13:14:21;95163.41;;;12.64;100.00
6030;BME280;3043;42.682;23.376;2023-05-10T13:16:47;95171.91;;;12.69;100.00
6030;BME280;3043;42.682;23.376;2023-05-10T13:19:13;95170.38;;;12.62;100.00
6030;BME280;3043;42.682;23.376;2023-05-10T13:21:38;95166.78;;;12.66;100.00
6030;BME280;3043;42.682;23.376;2023-05-10T13:24:06;95171.72;;;12.75;100.00
6030;BME280;3043;42.682;23.376;2023-05-10T13:26:32;95176.25;;;12.68;100.00
6030;BME280;3043;42.682;23.376;2023-05-10T13:28:57;95165.00;;;12.68;100.00
6030;BME280;3043;42.682;23.376;2023-05-10T13:31:23;95158.22;;;12.64;100.00
6030;BME280;3043;42.682;23.376;2023-05-10T13:33:48;95160.09;;;12.58;100.00
6030;BME280;3043;42.682;23.376;2023-05-10T13:36:14;95156.78;;;12.53;100.00
6030;BME280;3043;42.682;23.376;2023-05-10T13:38:39;95162.22;;;12.44;100.00
6030;BME280;3043;42.682;23.376;2023-05-10T13:41:05;95141.38;;;12.47;100.00
6030;BME280;3043;42.682;23.376;2023-05-10T13:43:30;95146.38;;;12.53;100.00
6030;BME280;3043;42.682;23.376;2023-05-10T13:45:56;95153.47;;;12.48;100.00
6030;BME280;3043;42.682;23.376;2023-05-10T13:48:21;95139.09;;;12.37;100.00